sensor_id;sensor_type;location;lat;lon;timestamp;P1;durP1;ratioP1;P2;durP2;ratioP2
549;SDS011;20066;48.764;9.176;2022-09-20T00:00:07;11.63;;;3.20;;
549;SDS011;20066;48.764;9.176;2022-09-20T00:02:37;8.15;;;2.55;;
549;SDS011;20066;48.764;9.176;2022-09-20T00:05:05;9.57;;;3.05;;
549;SDS011;20066;48.764;9.176;2022-09-20T00:07:34;12.05;;;3.47;;
549;SDS011;20066;48.764;9.176;2022-09-20T00:10:04;5.15;;;2.53;;
549;SDS011;20066;48.764;9.176;2022-09-20T00:12:32;8.60;;;3.15;;
549;SDS011;20066;48.764;9.176;2022-09-20T00:14:59;5.28;;;2.75;;
549;SDS011;20066;48.764;9.176;2022-09-20T00:17:27;4.05;;;2.47;;
549;SDS011;20066;48.764;9.176;2022-09-20T00:19:55;7.28;;;3.25;;
549;SDS011;20066;48.764;9.176;2022-09-20T00:22:22;5.55;;;2.20;;
549;SDS011;20066;48.764;9.176;2022-09-20T00:24:50;14.02;;;3.50;;
549;SDS011;20066;48.764;9.176;2022-09-20T00:27:19;6.07;;;2.63;;
549;SDS011;20066;48.764;9.176;2022-09-20T00:29:47;11.15;;;3.13;;
549;SDS011;20066;48.764;9.176;2022-09-20T00:32:14;9.57;;;3.10;;
549;SDS011;20066;48.764;9.176;2022-09-20T00:34:42;3.83;;;2.40;;
549;SDS011;20066;48.764;9.176;2022-09-20T00:37:27;5.97;;;2.80;;
549;SDS011;20066;48.764;9.176;2022-09-20T00:39:55;6.05;;;3.13;;
549;SDS011;20066;48.764;9.176;2022-09-20T00:42:26;9.05;;;3.08;;
549;SDS011;20066;48.764;9.176;2022-09-20T00:44:55;6.32;;;3.00;;
549;SDS011;20066;48.764;9.176;2022-09-20T00:47:29;8.63;;;2.25;;
549;SDS011;20066;48.764;9.176;2022-09-20T00:50:07;6.47;;;3.30;;
549;SDS011;20066;48.764;9.176;2022-09-20T00:52:45;6.00;;;2.70;;
549;SDS011;20066;48.764;9.176;2022-09-20T00:55:18;6.00;;;2.67;;
549;SDS011;20066;48.764;9.176;2022-09-20T00:57:47;4.05;;;2.22;;
549;SDS011;20066;48.764;9.176;2022-09-20T01:00:16;13.82;;;2.60;;
549;SDS011;20066;48.764;9.176;2022-09-20T01:02:45;6.50;;;2.40;;
549;SDS011;20066;48.764;9.176;2022-09-20T01:05:15;7.00;;;2.65;;
549;SDS011;20066;48.764;9.176;2022-09-20T01:07:45;7.07;;;2.50;;
549;SDS011;20066;48.764;9.176;2022-09-20T01:10:16;5.32;;;2.30;;
549;SDS011;20066;48.764;9.176;2022-09-20T01:12:44;4.82;;;2.22;;
549;SDS011;20066;48.764;9.176;2022-09-20T01:15:14;6.53;;;2.67;;
549;SDS011;20066;48.764;9.176;2022-09-20T01:17:43;5.85;;;2.63;;
549;SDS011;20066;48.764;9.176;2022-09-20T01:20:15;7.13;;;3.15;;
549;SDS011;20066;48.764;9.176;2022-09-20T01:22:51;3.93;;;2.33;;
549;SDS011;20066;48.764;9.176;2022-09-20T01:25:32;5.93;;;2.30;;
549;SDS011;20066;48.764;9.176;2022-09-20T01:28:22;4.10;;;2.05;;
549;SDS011;20066;48.764;9.176;2022-09-20T01:30:53;5.50;;;2.20;;
549;SDS011;20066;48.764;9.176;2022-09-20T01:33:28;5.35;;;2.60;;
549;SDS011;20066;48.764;9.176;2022-09-20T01:36:03;9.13;;;2.80;;
549;SDS011;20066;48.764;9.176;2022-09-20T01:38:33;5.88;;;2.15;;
549;SDS011;20066;48.764;9.176;2022-09-20T01:41:10;6.47;;;2.40;;
549;SDS011;20066;48.764;9.176;2022-09-20T01:43:44;4.53;;;2.03;;
549;SDS011;20066;48.764;9.176;2022-09-20T01:46:21;4.00;;;2.33;;
549;SDS011;20066;48.764;9.176;2022-09-20T01:49:00;5.60;;;2.10;;
549;SDS011;20066;48.764;9.176;2022-09-20T01:51:49;6.47;;;2.42;;
549;SDS011;20066;48.764;9.176;2022-09-20T01:54:50;7.07;;;2.25;;
549;SDS011;20066;48.764;9.176;2022-09-20T01:58:02;6.35;;;2.58;;
549;SDS011;20066;48.764;9.176;2022-09-20T02:00:57;7.88;;;3.15;;
549;SDS011;20066;48.764;9.176;2022-09-20T02:06:50;7.70;;;2.85;;
549;SDS011;20066;48.764;9.176;2022-09-20T02:09:54;3.42;;;1.90;;
549;SDS011;20066;48.764;9.176;2022-09-20T02:12:39;7.28;;;2.08;;
549;SDS011;20066;48.764;9.176;2022-09-20T02:15:23;3.92;;;2.10;;
549;SDS011;20066;48.764;9.176;2022-09-20T02:18:06;5.18;;;2.20;;
549;SDS011;20066;48.764;9.176;2022-09-20T02:20:46;6.80;;;2.30;;
549;SDS011;20066;48.764;9.176;2022-09-20T02:23:28;6.80;;;2.30;;
549;SDS011;20066;48.764;9.176;2022-09-20T02:26:17;10.27;;;2.50;;
549;SDS011;20066;48.764;9.176;2022-09-20T02:28:55;5.78;;;2.00;;
549;SDS011;20066;48.764;9.176;2022-09-20T02:31:37;7.30;;;2.50;;
549;SDS011;20066;48.764;9.176;2022-09-20T02:37:30;9.60;;;2.40;;
549;SDS011;20066;48.764;9.176;2022-09-20T02:40:18;14.07;;;3.10;;
549;SDS011;20066;48.764;9.176;2022-09-20T02:42:57;5.07;;;2.50;;
549;SDS011;20066;48.764;9.176;2022-09-20T02:45:34;5.97;;;2.78;;
549;SDS011;20066;48.764;9.176;2022-09-20T02:48:08;3.33;;;2.40;;
549;SDS011;20066;48.764;9.176;2022-09-20T02:50:39;5.78;;;2.53;;
549;SDS011;20066;48.764;9.176;2022-09-20T02:53:23;6.13;;;3.22;;
549;SDS011;20066;48.764;9.176;2022-09-20T02:56:02;6.38;;;3.00;;
549;SDS011;20066;48.764;9.176;2022-09-20T02:58:40;9.45;;;2.28;;
549;SDS011;20066;48.764;9.176;2022-09-20T03:01:20;10.73;;;2.67;;
549;SDS011;20066;48.764;9.176;2022-09-20T03:04:01;9.57;;;2.78;;
549;SDS011;20066;48.764;9.176;2022-09-20T03:06:44;4.30;;;2.17;;
549;SDS011;20066;48.764;9.176;2022-09-20T03:09:22;7.53;;;2.38;;
549;SDS011;20066;48.764;9.176;2022-09-20T03:12:01;7.88;;;2.10;;
549;SDS011;20066;48.764;9.176;2022-09-20T03:14:39;4.60;;;2.05;;
549;SDS011;20066;48.764;9.176;2022-09-20T03:17:16;9.90;;;2.25;;
549;SDS011;20066;48.764;9.176;2022-09-20T03:19:56;7.50;;;2.10;;
549;SDS011;20066;48.764;9.176;2022-09-20T03:22:38;5.65;;;2.00;;
549;SDS011;20066;48.764;9.176;2022-09-20T03:25:19;4.28;;;2.00;;
549;SDS011;20066;48.764;9.176;2022-09-20T03:28:15;9.38;;;1.90;;
549;SDS011;20066;48.764;9.176;2022-09-20T03:30:56;13.55;;;2.13;;
549;SDS011;20066;48.764;9.176;2022-09-20T03:33:33;6.68;;;2.25;;
549;SDS011;20066;48.764;9.176;2022-09-20T03:36:17;7.53;;;1.80;;
549;SDS011;20066;48.764;9.176;2022-09-20T03:39:06;10.02;;;2.20;;
549;SDS011;20066;48.764;9.176;2022-09-20T03:41:51;6.47;;;1.98;;
549;SDS011;20066;48.764;9.176;2022-09-20T03:44:37;4.10;;;1.85;;
549;SDS011;20066;48.764;9.176;2022-09-20T03:47:20;5.65;;;1.95;;
549;SDS011;20066;48.764;9.176;2022-09-20T03:52:53;9.18;;;1.88;;
549;SDS011;20066;48.764;9.176;2022-09-20T03:58:44;7.20;;;2.57;;
549;SDS011;20066;48.764;9.176;2022-09-20T04:01:39;6.35;;;2.00;;
549;SDS011;20066;48.764;9.176;2022-09-20T04:04:21;6.32;;;2.15;;
549;SDS011;20066;48.764;9.176;2022-09-20T04:06:58;7.50;;;2.17;;
549;SDS011;20066;48.764;9.176;2022-09-20T04:09:44;8.82;;;2.45;;
549;SDS011;20066;48.764;9.176;2022-09-20T04:12:34;8.55;;;2.15;;
549;SDS011;20066;48.764;9.176;2022-09-20T04:15:19;4.50;;;2.00;;
549;SDS011;20066;48.764;9.176;2022-09-20T04:17:56;4.00;;;2.10;;
549;SDS011;20066;48.764;9.176;2022-09-20T04:20:31;5.25;;;2.35;;
549;SDS011;20066;48.764;9.176;2022-09-20T04:23:09;6.88;;;2.15;;
549;SDS011;20066;48.764;9.176;2022-09-20T04:25:45;4.13;;;2.15;;
549;SDS011;20066;48.764;9.176;2022-09-20T04:28:16;7.97;;;2.10;;
549;SDS011;20066;48.764;9.176;2022-09-20T04:30:54;5.05;;;1.75;;
549;SDS011;20066;48.764;9.176;2022-09-20T04:33:30;8.85;;;2.10;;
549;SDS011;20066;48.764;9.176;2022-09-20T04:36:07;4.85;;;1.77;;
549;SDS011;20066;48.764;9.176;2022-09-20T04:38:59;5.55;;;2.30;;
549;SDS011;20066;48.764;9.176;2022-09-20T04:41:51;12.05;;;3.25;;
549;SDS011;20066;48.764;9.176;2022-09-20T04:44:43;7.45;;;3.33;;
549;SDS011;20066;48.764;9.176;2022-09-20T04:50:51;17.40;;;2.67;;
549;SDS011;20066;48.764;9.176;2022-09-20T04:53:54;5.68;;;3.28;;
549;SDS011;20066;48.764;9.176;2022-09-20T04:56:52;17.80;;;5.35;;
549;SDS011;20066;48.764;9.176;2022-09-20T04:59:36;13.27;;;3.90;;
549;SDS011;20066;48.764;9.176;2022-09-20T05:02:27;7.10;;;3.28;;
549;SDS011;20066;48.764;9.176;2022-09-20T05:05:30;11.88;;;3.50;;
549;SDS011;20066;48.764;9.176;2022-09-20T05:08:29;9.20;;;3.67;;
549;SDS011;20066;48.764;9.176;2022-09-20T05:14:24;9.73;;;4.20;;
549;SDS011;20066;48.764;9.176;2022-09-20T05:17:13;13.10;;;4.90;;
549;SDS011;20066;48.764;9.176;2022-09-20T05:19:53;10.60;;;5.00;;
549;SDS011;20066;48.764;9.176;2022-09-20T05:22:52;12.55;;;5.32;;
549;SDS011;20066;48.764;9.176;2022-09-20T05:28:34;9.13;;;4.22;;
549;SDS011;20066;48.764;9.176;2022-09-20T05:31:12;11.30;;;4.47;;
549;SDS011;20066;48.764;9.176;2022-09-20T05:33:47;7.50;;;3.70;;
549;SDS011;20066;48.764;9.176;2022-09-20T05:36:25;15.10;;;4.88;;
549;SDS011;20066;48.764;9.176;2022-09-20T05:39:01;14.68;;;4.53;;
549;SDS011;20066;48.764;9.176;2022-09-20T05:41:44;14.80;;;6.35;;
549;SDS011;20066;48.764;9.176;2022-09-20T05:44:19;6.95;;;3.75;;
549;SDS011;20066;48.764;9.176;2022-09-20T05:46:58;8.27;;;3.88;;
549;SDS011;20066;48.764;9.176;2022-09-20T05:49:40;10.30;;;3.95;;
549;SDS011;20066;48.764;9.176;2022-09-20T05:52:22;7.35;;;3.97;;
549;SDS011;20066;48.764;9.176;2022-09-20T05:55:19;10.50;;;5.20;;
549;SDS011;20066;48.764;9.176;2022-09-20T06:01:06;11.52;;;4.25;;
549;SDS011;20066;48.764;9.176;2022-09-20T06:03:40;15.43;;;6.45;;
549;SDS011;20066;48.764;9.176;2022-09-20T06:06:16;10.20;;;3.95;;
549;SDS011;20066;48.764;9.176;2022-09-20T06:08:59;11.23;;;4.90;;
549;SDS011;20066;48.764;9.176;2022-09-20T06:11:42;8.13;;;3.60;;
549;SDS011;20066;48.764;9.176;2022-09-20T06:14:25;7.85;;;3.35;;
549;SDS011;20066;48.764;9.176;2022-09-20T06:17:06;8.18;;;3.80;;
549;SDS011;20066;48.764;9.176;2022-09-20T06:19:43;10.73;;;3.95;;
549;SDS011;20066;48.764;9.176;2022-09-20T06:22:18;10.80;;;4.20;;
549;SDS011;20066;48.764;9.176;2022-09-20T06:24:53;14.18;;;4.07;;
549;SDS011;20066;48.764;9.176;2022-09-20T06:27:29;10.00;;;4.00;;
549;SDS011;20066;48.764;9.176;2022-09-20T06:30:03;18.00;;;4.00;;
549;SDS011;20066;48.764;9.176;2022-09-20T06:32:34;8.60;;;3.60;;
549;SDS011;20066;48.764;9.176;2022-09-20T06:35:18;6.50;;;4.07;;
549;SDS011;20066;48.764;9.176;2022-09-20T06:37:49;7.88;;;4.18;;
549;SDS011;20066;48.764;9.176;2022-09-20T06:40:38;11.38;;;3.65;;
549;SDS011;20066;48.764;9.176;2022-09-20T06:43:39;7.97;;;3.33;;
549;SDS011;20066;48.764;9.176;2022-09-20T06:46:08;8.77;;;3.10;;
549;SDS011;20066;48.764;9.176;2022-09-20T06:48:36;11.47;;;3.00;;
549;SDS011;20066;48.764;9.176;2022-09-20T06:51:05;8.17;;;3.60;;
549;SDS011;20066;48.764;9.176;2022-09-20T06:53:36;7.50;;;3.63;;
549;SDS011;20066;48.764;9.176;2022-09-20T06:56:07;10.43;;;3.85;;
549;SDS011;20066;48.764;9.176;2022-09-20T06:58:40;6.80;;;3.30;;
549;SDS011;20066;48.764;9.176;2022-09-20T07:01:07;8.05;;;3.25;;
549;SDS011;20066;48.764;9.176;2022-09-20T07:03:35;8.25;;;3.15;;
549;SDS011;20066;48.764;9.176;2022-09-20T07:06:03;11.37;;;3.90;;
549;SDS011;20066;48.764;9.176;2022-09-20T07:08:31;12.60;;;3.42;;
549;SDS011;20066;48.764;9.176;2022-09-20T07:11:03;11.93;;;3.50;;
549;SDS011;20066;48.764;9.176;2022-09-20T07:13:31;14.23;;;3.97;;
549;SDS011;20066;48.764;9.176;2022-09-20T07:16:00;10.65;;;3.75;;
549;SDS011;20066;48.764;9.176;2022-09-20T07:18:28;14.47;;;3.30;;
549;SDS011;20066;48.764;9.176;2022-09-20T07:20:59;13.48;;;4.75;;
549;SDS011;20066;48.764;9.176;2022-09-20T07:23:27;9.07;;;3.47;;
549;SDS011;20066;48.764;9.176;2022-09-20T07:25:56;12.83;;;3.87;;
549;SDS011;20066;48.764;9.176;2022-09-20T07:28:27;10.03;;;4.07;;
549;SDS011;20066;48.764;9.176;2022-09-20T07:30:55;10.47;;;4.30;;
549;SDS011;20066;48.764;9.176;2022-09-20T07:33:24;9.77;;;4.13;;
549;SDS011;20066;48.764;9.176;2022-09-20T07:35:52;10.40;;;3.60;;
549;SDS011;20066;48.764;9.176;2022-09-20T07:38:21;11.27;;;4.00;;
549;SDS011;20066;48.764;9.176;2022-09-20T07:40:53;7.03;;;3.20;;
549;SDS011;20066;48.764;9.176;2022-09-20T07:43:23;9.43;;;3.43;;
549;SDS011;20066;48.764;9.176;2022-09-20T07:45:52;6.23;;;3.37;;
549;SDS011;20066;48.764;9.176;2022-09-20T07:48:21;10.20;;;4.07;;
549;SDS011;20066;48.764;9.176;2022-09-20T07:50:51;7.40;;;4.30;;
549;SDS011;20066;48.764;9.176;2022-09-20T07:53:19;7.20;;;3.20;;
549;SDS011;20066;48.764;9.176;2022-09-20T07:55:57;6.83;;;1.97;;
549;SDS011;20066;48.764;9.176;2022-09-20T07:58:26;5.20;;;1.97;;
549;SDS011;20066;48.764;9.176;2022-09-20T08:00:56;13.93;;;2.53;;
549;SDS011;20066;48.764;9.176;2022-09-20T08:03:25;9.20;;;2.53;;
549;SDS011;20066;48.764;9.176;2022-09-20T08:05:57;9.23;;;2.30;;
549;SDS011;20066;48.764;9.176;2022-09-20T08:08:25;9.37;;;2.50;;
549;SDS011;20066;48.764;9.176;2022-09-20T08:11:00;8.77;;;1.93;;
549;SDS011;20066;48.764;9.176;2022-09-20T08:13:28;11.37;;;2.60;;
549;SDS011;20066;48.764;9.176;2022-09-20T08:16:18;11.70;;;3.17;;
549;SDS011;20066;48.764;9.176;2022-09-20T08:18:47;11.10;;;3.10;;
549;SDS011;20066;48.764;9.176;2022-09-20T08:21:16;11.87;;;2.80;;
549;SDS011;20066;48.764;9.176;2022-09-20T08:23:45;8.33;;;2.03;;
549;SDS011;20066;48.764;9.176;2022-09-20T08:26:14;9.97;;;2.50;;
549;SDS011;20066;48.764;9.176;2022-09-20T08:28:50;9.50;;;2.30;;
549;SDS011;20066;48.764;9.176;2022-09-20T08:31:20;18.40;;;2.70;;
549;SDS011;20066;48.764;9.176;2022-09-20T08:33:50;5.63;;;1.90;;
549;SDS011;20066;48.764;9.176;2022-09-20T08:36:19;13.80;;;2.20;;
549;SDS011;20066;48.764;9.176;2022-09-20T08:38:49;10.87;;;2.43;;
549;SDS011;20066;48.764;9.176;2022-09-20T08:41:39;8.73;;;2.20;;
549;SDS011;20066;48.764;9.176;2022-09-20T08:44:12;9.33;;;2.70;;
549;SDS011;20066;48.764;9.176;2022-09-20T08:46:46;9.40;;;2.10;;
549;SDS011;20066;48.764;9.176;2022-09-20T08:49:18;10.70;;;2.17;;
549;SDS011;20066;48.764;9.176;2022-09-20T08:51:52;11.67;;;2.30;;
549;SDS011;20066;48.764;9.176;2022-09-20T08:54:23;10.10;;;2.27;;
549;SDS011;20066;48.764;9.176;2022-09-20T08:56:57;5.97;;;2.20;;
549;SDS011;20066;48.764;9.176;2022-09-20T08:59:30;9.57;;;1.83;;
549;SDS011;20066;48.764;9.176;2022-09-20T09:02:00;8.50;;;2.20;;
549;SDS011;20066;48.764;9.176;2022-09-20T09:04:30;5.23;;;1.93;;
549;SDS011;20066;48.764;9.176;2022-09-20T09:07:02;8.27;;;1.90;;
549;SDS011;20066;48.764;9.176;2022-09-20T09:09:33;12.77;;;2.23;;
549;SDS011;20066;48.764;9.176;2022-09-20T09:12:12;8.87;;;2.00;;
549;SDS011;20066;48.764;9.176;2022-09-20T09:14:50;5.80;;;1.63;;
549;SDS011;20066;48.764;9.176;2022-09-20T09:17:23;6.70;;;1.70;;
549;SDS011;20066;48.764;9.176;2022-09-20T09:19:53;9.53;;;2.00;;
549;SDS011;20066;48.764;9.176;2022-09-20T09:22:24;4.03;;;1.60;;
549;SDS011;20066;48.764;9.176;2022-09-20T09:25:07;4.07;;;1.80;;
549;SDS011;20066;48.764;9.176;2022-09-20T09:27:49;5.57;;;1.90;;
549;SDS011;20066;48.764;9.176;2022-09-20T09:30:23;10.93;;;2.20;;
549;SDS011;20066;48.764;9.176;2022-09-20T09:32:53;9.77;;;2.77;;
549;SDS011;20066;48.764;9.176;2022-09-20T09:35:42;9.83;;;1.93;;
549;SDS011;20066;48.764;9.176;2022-09-20T09:38:16;8.53;;;2.30;;
549;SDS011;20066;48.764;9.176;2022-09-20T09:40:50;11.47;;;2.13;;
549;SDS011;20066;48.764;9.176;2022-09-20T09:43:20;5.63;;;1.63;;
549;SDS011;20066;48.764;9.176;2022-09-20T09:45:52;8.13;;;1.83;;
549;SDS011;20066;48.764;9.176;2022-09-20T09:48:24;11.03;;;2.30;;
549;SDS011;20066;48.764;9.176;2022-09-20T09:51:06;10.57;;;2.03;;
549;SDS011;20066;48.764;9.176;2022-09-20T09:53:39;10.33;;;2.50;;
549;SDS011;20066;48.764;9.176;2022-09-20T09:56:23;10.03;;;2.23;;
549;SDS011;20066;48.764;9.176;2022-09-20T09:59:08;7.00;;;2.03;;
549;SDS011;20066;48.764;9.176;2022-09-20T10:01:51;9.90;;;2.00;;
549;SDS011;20066;48.764;9.176;2022-09-20T10:04:29;7.50;;;2.27;;
549;SDS011;20066;48.764;9.176;2022-09-20T10:07:03;6.33;;;2.03;;
549;SDS011;20066;48.764;9.176;2022-09-20T10:09:44;8.43;;;1.80;;
549;SDS011;20066;48.764;9.176;2022-09-20T10:12:26;9.40;;;2.03;;
549;SDS011;20066;48.764;9.176;2022-09-20T10:15:08;4.73;;;1.77;;
549;SDS011;20066;48.764;9.176;2022-09-20T10:17:52;10.63;;;2.80;;
549;SDS011;20066;48.764;9.176;2022-09-20T10:20:46;6.13;;;1.77;;
549;SDS011;20066;48.764;9.176;2022-09-20T10:23:33;7.33;;;2.00;;
549;SDS011;20066;48.764;9.176;2022-09-20T10:29:23;14.60;;;1.73;;
549;SDS011;20066;48.764;9.176;2022-09-20T10:32:04;7.50;;;1.63;;
549;SDS011;20066;48.764;9.176;2022-09-20T10:34:47;8.20;;;1.83;;
549;SDS011;20066;48.764;9.176;2022-09-20T10:37:27;4.40;;;1.60;;
549;SDS011;20066;48.764;9.176;2022-09-20T10:40:03;7.20;;;2.07;;
549;SDS011;20066;48.764;9.176;2022-09-20T10:42:44;11.80;;;2.37;;
549;SDS011;20066;48.764;9.176;2022-09-20T10:45:35;8.33;;;2.27;;
549;SDS011;20066;48.764;9.176;2022-09-20T10:48:30;4.33;;;1.50;;
549;SDS011;20066;48.764;9.176;2022-09-20T10:51:01;6.63;;;1.67;;
549;SDS011;20066;48.764;9.176;2022-09-20T10:53:36;11.40;;;1.93;;
549;SDS011;20066;48.764;9.176;2022-09-20T10:56:13;5.67;;;1.87;;
549;SDS011;20066;48.764;9.176;2022-09-20T11:01:59;9.83;;;1.80;;
549;SDS011;20066;48.764;9.176;2022-09-20T11:05:00;5.83;;;1.70;;
549;SDS011;20066;48.764;9.176;2022-09-20T11:07:44;6.27;;;2.03;;
549;SDS011;20066;48.764;9.176;2022-09-20T11:10:22;5.10;;;1.53;;
549;SDS011;20066;48.764;9.176;2022-09-20T11:12:55;5.17;;;1.70;;
549;SDS011;20066;48.764;9.176;2022-09-20T11:15:28;7.70;;;1.97;;
549;SDS011;20066;48.764;9.176;2022-09-20T11:18:03;8.27;;;1.67;;
549;SDS011;20066;48.764;9.176;2022-09-20T11:20:39;4.30;;;1.33;;
549;SDS011;20066;48.764;9.176;2022-09-20T11:23:13;8.53;;;1.63;;
549;SDS011;20066;48.764;9.176;2022-09-20T11:25:47;13.90;;;2.83;;
549;SDS011;20066;48.764;9.176;2022-09-20T11:28:19;11.37;;;1.97;;
549;SDS011;20066;48.764;9.176;2022-09-20T11:30:53;6.10;;;1.60;;
549;SDS011;20066;48.764;9.176;2022-09-20T11:33:27;9.07;;;1.70;;
549;SDS011;20066;48.764;9.176;2022-09-20T11:36:05;5.80;;;1.80;;
549;SDS011;20066;48.764;9.176;2022-09-20T11:38:37;10.50;;;1.70;;
549;SDS011;20066;48.764;9.176;2022-09-20T11:41:20;6.67;;;1.97;;
549;SDS011;20066;48.764;9.176;2022-09-20T11:43:52;5.27;;;1.37;;
549;SDS011;20066;48.764;9.176;2022-09-20T11:46:24;6.90;;;1.50;;
549;SDS011;20066;48.764;9.176;2022-09-20T11:48:56;5.10;;;1.50;;
549;SDS011;20066;48.764;9.176;2022-09-20T11:51:41;10.00;;;1.80;;
549;SDS011;20066;48.764;9.176;2022-09-20T11:54:27;10.53;;;1.47;;
549;SDS011;20066;48.764;9.176;2022-09-20T11:57:21;5.30;;;1.53;;
549;SDS011;20066;48.764;9.176;2022-09-20T11:59:50;5.63;;;1.93;;
549;SDS011;20066;48.764;9.176;2022-09-20T12:02:21;7.17;;;1.60;;
549;SDS011;20066;48.764;9.176;2022-09-20T12:04:53;6.90;;;1.93;;
549;SDS011;20066;48.764;9.176;2022-09-20T12:07:22;5.13;;;1.50;;
549;SDS011;20066;48.764;9.176;2022-09-20T12:09:53;5.40;;;2.20;;
549;SDS011;20066;48.764;9.176;2022-09-20T12:12:31;12.40;;;2.23;;
549;SDS011;20066;48.764;9.176;2022-09-20T12:15:04;7.30;;;1.33;;
549;SDS011;20066;48.764;9.176;2022-09-20T12:23:45;7.83;;;1.67;;
549;SDS011;20066;48.764;9.176;2022-09-20T12:26:39;7.00;;;1.23;;
549;SDS011;20066;48.764;9.176;2022-09-20T12:32:38;8.80;;;1.70;;
549;SDS011;20066;48.764;9.176;2022-09-20T12:38:37;5.03;;;1.50;;
549;SDS011;20066;48.764;9.176;2022-09-20T12:41:14;3.53;;;1.30;;
549;SDS011;20066;48.764;9.176;2022-09-20T12:46:51;6.90;;;1.60;;
549;SDS011;20066;48.764;9.176;2022-09-20T12:49:32;7.10;;;1.47;;
549;SDS011;20066;48.764;9.176;2022-09-20T12:52:23;7.00;;;1.87;;
549;SDS011;20066;48.764;9.176;2022-09-20T12:55:23;4.80;;;1.70;;
549;SDS011;20066;48.764;9.176;2022-09-20T12:58:15;8.40;;;2.57;;
549;SDS011;20066;48.764;9.176;2022-09-20T13:00:46;7.67;;;2.07;;
549;SDS011;20066;48.764;9.176;2022-09-20T13:03:26;4.83;;;1.77;;
549;SDS011;20066;48.764;9.176;2022-09-20T13:08:54;6.90;;;1.50;;
549;SDS011;20066;48.764;9.176;2022-09-20T13:11:29;8.00;;;1.30;;
549;SDS011;20066;48.764;9.176;2022-09-20T13:14:07;5.53;;;1.70;;
549;SDS011;20066;48.764;9.176;2022-09-20T13:16:44;8.87;;;1.60;;
549;SDS011;20066;48.764;9.176;2022-09-20T13:19:17;3.83;;;1.47;;
549;SDS011;20066;48.764;9.176;2022-09-20T13:21:51;6.67;;;1.60;;
549;SDS011;20066;48.764;9.176;2022-09-20T13:24:23;7.73;;;1.40;;
549;SDS011;20066;48.764;9.176;2022-09-20T13:26:52;8.00;;;2.13;;
549;SDS011;20066;48.764;9.176;2022-09-20T13:29:24;5.17;;;1.70;;
549;SDS011;20066;48.764;9.176;2022-09-20T13:34:44;6.03;;;1.97;;
549;SDS011;20066;48.764;9.176;2022-09-20T13:37:15;5.33;;;1.80;;
549;SDS011;20066;48.764;9.176;2022-09-20T13:39:46;4.03;;;1.77;;
549;SDS011;20066;48.764;9.176;2022-09-20T13:42:19;7.37;;;2.03;;
549;SDS011;20066;48.764;9.176;2022-09-20T13:44:47;7.93;;;2.27;;
549;SDS011;20066;48.764;9.176;2022-09-20T13:47:25;4.40;;;1.70;;
549;SDS011;20066;48.764;9.176;2022-09-20T13:49:58;5.80;;;2.00;;
549;SDS011;20066;48.764;9.176;2022-09-20T13:52:29;5.30;;;2.30;;
549;SDS011;20066;48.764;9.176;2022-09-20T13:54:57;3.73;;;1.50;;
549;SDS011;20066;48.764;9.176;2022-09-20T13:57:26;3.40;;;1.67;;
549;SDS011;20066;48.764;9.176;2022-09-20T13:59:56;5.60;;;2.00;;
549;SDS011;20066;48.764;9.176;2022-09-20T14:02:28;7.27;;;2.00;;
549;SDS011;20066;48.764;9.176;2022-09-20T14:04:58;5.17;;;1.83;;
549;SDS011;20066;48.764;9.176;2022-09-20T14:07:28;5.77;;;1.87;;
549;SDS011;20066;48.764;9.176;2022-09-20T14:09:57;5.13;;;1.83;;
549;SDS011;20066;48.764;9.176;2022-09-20T14:12:25;6.90;;;1.73;;
549;SDS011;20066;48.764;9.176;2022-09-20T14:14:54;11.50;;;2.70;;
549;SDS011;20066;48.764;9.176;2022-09-20T14:17:22;4.57;;;1.70;;
549;SDS011;20066;48.764;9.176;2022-09-20T14:19:51;5.63;;;1.90;;
549;SDS011;20066;48.764;9.176;2022-09-20T14:22:21;2.87;;;1.57;;
549;SDS011;20066;48.764;9.176;2022-09-20T14:24:57;8.93;;;1.80;;
549;SDS011;20066;48.764;9.176;2022-09-20T14:27:27;3.33;;;1.47;;
549;SDS011;20066;48.764;9.176;2022-09-20T14:29:56;7.37;;;1.73;;
549;SDS011;20066;48.764;9.176;2022-09-20T14:32:35;4.33;;;1.20;;
549;SDS011;20066;48.764;9.176;2022-09-20T14:35:06;6.07;;;1.67;;
549;SDS011;20066;48.764;9.176;2022-09-20T14:37:42;3.57;;;1.50;;
549;SDS011;20066;48.764;9.176;2022-09-20T14:40:18;4.83;;;1.37;;
549;SDS011;20066;48.764;9.176;2022-09-20T14:42:50;5.40;;;1.37;;
549;SDS011;20066;48.764;9.176;2022-09-20T14:45:20;7.43;;;1.70;;
549;SDS011;20066;48.764;9.176;2022-09-20T14:47:58;3.60;;;1.70;;
549;SDS011;20066;48.764;9.176;2022-09-20T14:50:36;8.10;;;1.50;;
549;SDS011;20066;48.764;9.176;2022-09-20T14:53:19;5.47;;;1.70;;
549;SDS011;20066;48.764;9.176;2022-09-20T14:55:57;4.30;;;1.63;;
549;SDS011;20066;48.764;9.176;2022-09-20T14:58:26;3.10;;;1.57;;
549;SDS011;20066;48.764;9.176;2022-09-20T15:00:57;3.67;;;1.67;;
549;SDS011;20066;48.764;9.176;2022-09-20T15:03:31;2.57;;;1.60;;
549;SDS011;20066;48.764;9.176;2022-09-20T15:06:00;3.40;;;1.60;;
549;SDS011;20066;48.764;9.176;2022-09-20T15:08:28;6.60;;;2.40;;
549;SDS011;20066;48.764;9.176;2022-09-20T15:10:59;5.33;;;2.23;;
549;SDS011;20066;48.764;9.176;2022-09-20T15:13:27;4.57;;;2.37;;
549;SDS011;20066;48.764;9.176;2022-09-20T15:15:54;5.60;;;2.57;;
549;SDS011;20066;48.764;9.176;2022-09-20T15:18:23;3.30;;;1.77;;
549;SDS011;20066;48.764;9.176;2022-09-20T15:20:53;5.00;;;1.80;;
549;SDS011;20066;48.764;9.176;2022-09-20T15:23:22;2.97;;;1.40;;
549;SDS011;20066;48.764;9.176;2022-09-20T15:25:50;2.87;;;1.23;;
549;SDS011;20066;48.764;9.176;2022-09-20T15:28:21;1.70;;;1.20;;
549;SDS011;20066;48.764;9.176;2022-09-20T15:30:49;6.90;;;2.23;;
549;SDS011;20066;48.764;9.176;2022-09-20T15:33:18;2.80;;;1.40;;
549;SDS011;20066;48.764;9.176;2022-09-20T15:35:47;4.30;;;1.50;;
549;SDS011;20066;48.764;9.176;2022-09-20T15:38:15;3.17;;;1.20;;
549;SDS011;20066;48.764;9.176;2022-09-20T15:40:44;3.00;;;1.30;;
549;SDS011;20066;48.764;9.176;2022-09-20T15:43:13;4.50;;;1.47;;
549;SDS011;20066;48.764;9.176;2022-09-20T15:45:47;9.20;;;1.47;;
549;SDS011;20066;48.764;9.176;2022-09-20T15:48:17;4.50;;;1.60;;
549;SDS011;20066;48.764;9.176;2022-09-20T15:53:37;3.23;;;1.50;;
549;SDS011;20066;48.764;9.176;2022-09-20T15:56:12;3.60;;;1.70;;
549;SDS011;20066;48.764;9.176;2022-09-20T15:58:43;4.07;;;1.10;;
549;SDS011;20066;48.764;9.176;2022-09-20T16:01:13;5.80;;;1.50;;
549;SDS011;20066;48.764;9.176;2022-09-20T16:03:42;3.10;;;1.60;;
549;SDS011;20066;48.764;9.176;2022-09-20T16:06:11;3.40;;;2.20;;
549;SDS011;20066;48.764;9.176;2022-09-20T16:08:40;3.37;;;1.60;;
549;SDS011;20066;48.764;9.176;2022-09-20T16:11:09;4.00;;;1.53;;
549;SDS011;20066;48.764;9.176;2022-09-20T16:13:39;3.70;;;1.70;;
549;SDS011;20066;48.764;9.176;2022-09-20T16:16:08;4.10;;;1.70;;
549;SDS011;20066;48.764;9.176;2022-09-20T16:18:39;3.97;;;1.97;;
549;SDS011;20066;48.764;9.176;2022-09-20T16:21:39;3.53;;;1.40;;
549;SDS011;20066;48.764;9.176;2022-09-20T16:24:09;2.60;;;1.30;;
549;SDS011;20066;48.764;9.176;2022-09-20T16:26:39;2.67;;;1.50;;
549;SDS011;20066;48.764;9.176;2022-09-20T16:29:08;4.33;;;1.37;;
549;SDS011;20066;48.764;9.176;2022-09-20T16:31:37;3.07;;;1.60;;
549;SDS011;20066;48.764;9.176;2022-09-20T16:34:12;4.40;;;1.80;;
549;SDS011;20066;48.764;9.176;2022-09-20T16:36:42;3.90;;;1.97;;
549;SDS011;20066;48.764;9.176;2022-09-20T16:39:10;7.73;;;2.00;;
549;SDS011;20066;48.764;9.176;2022-09-20T16:41:40;3.40;;;1.70;;
549;SDS011;20066;48.764;9.176;2022-09-20T16:44:08;5.43;;;2.27;;
549;SDS011;20066;48.764;9.176;2022-09-20T16:46:36;4.83;;;1.90;;
549;SDS011;20066;48.764;9.176;2022-09-20T16:49:04;3.50;;;1.63;;
549;SDS011;20066;48.764;9.176;2022-09-20T16:51:36;4.00;;;1.50;;
549;SDS011;20066;48.764;9.176;2022-09-20T16:54:06;2.30;;;1.50;;
549;SDS011;20066;48.764;9.176;2022-09-20T16:56:39;4.30;;;1.97;;
549;SDS011;20066;48.764;9.176;2022-09-20T16:59:08;4.93;;;2.33;;
549;SDS011;20066;48.764;9.176;2022-09-20T17:01:37;4.93;;;1.90;;